Latest Weather Observations for Swan Island

IDT60801

Issued at 12:02 pm EDT Sunday 18 February 2018 (issued every 30 minutes, with the page automatically refreshed every 10 minutes)

About weather observations | Map of weather stations | Latest weather observations for TAS | Other Formats
Station Details ID: 092123 Name: SWAN ISLAND Lat: -40.73 Lon: 148.12 Height: 15.0 m
Data from the previous 72 hours. | See also: Recent months at Swan Island
Date/Time
EDT
Temp
°C
App
Temp
°C
Dew
Point
°C
Rel
Hum
%
Delta-T
°C
Wind Press
QNH
hPa
Press
MSL
hPa
Rain since
9am
mm
Dir  Spd
km/h
Gust
km/h
Spd
kts
Gust
kts
18/12:00pm 20.1 18.8 15.9 77 2.5 WNW 17 22 9 12 1012.6 1012.5 0.0
18/11:30am 19.6 18.0 15.9 79 2.2 WNW 19 28 10 15 1012.4 1012.3 0.0
18/11:00am 19.2 17.5 15.7 80 2.1 WNW 19 26 10 14 1012.6 1012.5 0.0
18/10:30am 18.9 17.7 16.0 83 1.7 WNW 17 26 9 14 1012.4 1012.3 0.0
18/10:00am 18.6 16.3 15.7 83 1.7 WNW 22 28 12 15 1012.3 1012.2 0.0
18/09:30am 18.4 16.0 15.5 83 1.7 WNW 22 30 12 16 1012.3 1012.2 0.0
18/09:00am 18.3 16.5 15.4 83 1.7 WNW 19 26 10 14 1012.5 1012.4 0.0
18/08:30am 18.2 15.8 15.3 83 1.7 WNW 22 30 12 16 1012.3 1012.2 0.0
18/08:00am 18.0 16.0 15.4 85 1.5 WNW 20 28 11 15 1011.7 1011.6 0.0
18/07:30am 17.9 15.8 15.3 85 1.5 WNW 20 26 11 14 1011.2 1011.1 0.0
18/07:00am 17.9 15.1 15.3 85 1.5 WNW 24 35 13 19 1011.1 1011.0 0.0
18/06:30am 17.8 15.6 14.9 83 1.7 WNW 20 30 11 16 1010.9 1010.8 0.0
18/06:00am 17.8 15.2 14.9 83 1.7 W 22 33 12 18 1010.7 1010.7 0.0
18/05:30am 17.9 14.7 15.2 84 1.6 WNW 26 39 14 21 1010.3 1010.3 0.0
18/05:00am 18.0 13.9 14.9 82 1.8 WNW 30 41 16 22 1010.2 1010.2 0.0
18/04:30am 18.1 14.3 14.6 80 2.0 WNW 28 41 15 22 1010.1 1010.1 0.0
18/04:00am 17.8 14.9 15.1 84 1.6 WNW 24 37 13 20 1010.0 1010.0 0.0
18/03:30am 17.7 14.2 15.5 87 1.3 WNW 28 35 15 19 1010.2 1010.2 0.0
18/03:00am 18.1 15.4 15.7 86 1.4 W 24 41 13 22 1010.2 1010.2 0.0
18/02:30am 18.3 13.6 14.4 78 2.2 WNW 32 41 17 22 1010.4 1010.4 0.0
18/02:00am 18.2 13.6 14.5 79 2.1 WNW 32 44 17 24 1010.4 1010.4 0.0
18/01:30am 18.1 12.6 14.6 80 2.0 WNW 37 50 20 27 1010.3 1010.3 0.0
18/01:00am 18.1 13.4 14.8 81 1.9 WNW 33 48 18 26 1010.4 1010.4 0.0
18/12:30am 18.1 12.9 14.6 80 2.0 WNW 35 48 19 26 1010.5 1010.5 0.0
18/12:00am 18.1 13.4 14.8 81 1.9 WNW 33 46 18 25 1010.4 1010.4 0.0
 
Date/Time
EDT
Temp
°C
App
Temp
°C
Dew
Point
°C
Rel
Hum
%
Delta-T
°C
Wind Press
QNH
hPa
Press
MSL
hPa
Rain since
9am
mm
Dir  Spd
km/h
Gust
km/h
Spd
kts
Gust
kts
17/11:30pm 18.1 12.9 14.6 80 2.0 WNW 35 44 19 24 1010.5 1010.5 0.0
17/11:00pm 18.0 13.4 14.5 80 2.0 WNW 32 43 17 23 1010.4 1010.4 0.0
17/10:30pm 18.1 14.0 14.8 81 1.9 WNW 30 43 16 23 1010.6 1010.6 0.0
17/10:00pm 18.1 13.6 14.8 81 1.9 WNW 32 46 17 25 1010.6 1010.6 0.0
17/09:30pm 18.1 13.4 14.2 78 2.2 WNW 32 46 17 25 1010.5 1010.5 0.0
17/09:00pm 18.1 13.2 14.2 78 2.2 WNW 33 52 18 28 1010.2 1010.2 0.0
17/08:30pm 18.0 12.1 13.7 76 2.4 WNW 37 50 20 27 1009.7 1009.7 0.0
17/08:00pm 18.0 12.6 13.9 77 2.3 WNW 35 48 19 26 1009.2 1009.2 0.0
17/07:30pm 18.3 13.1 14.4 78 2.2 WNW 35 46 19 25 1009.2 1009.2 0.0
17/07:00pm 18.3 12.7 13.4 73 2.8 WNW 35 50 19 27 1009.0 1009.0 0.0
17/06:30pm 18.9 13.0 13.5 71 3.1 WNW 37 50 20 27 1008.9 1008.9 0.0
17/06:00pm 18.4 12.9 13.7 74 2.7 WNW 35 52 19 28 1008.8 1008.8 0.0
17/05:30pm 19.2 12.9 13.4 69 3.3 WNW 39 50 21 27 1008.6 1008.6 0.0
17/05:00pm 19.1 12.7 13.1 68 3.4 WNW 39 52 21 28 1008.6 1008.6 0.0
17/04:30pm 19.2 12.3 12.9 67 3.6 WNW 41 52 22 28 1008.6 1008.6 0.0
17/04:00pm 19.3 13.1 12.8 66 3.7 WNW 37 50 20 27 1009.0 1009.0 0.0
17/03:30pm 19.4 13.3 12.9 66 3.7 WNW 37 56 20 30 1008.9 1008.9 0.0
17/03:00pm 19.0 12.3 12.3 65 3.7 WNW 39 54 21 29 1008.9 1008.9 0.0
17/02:30pm 19.6 13.3 12.4 63 4.0 WNW 37 52 20 28 1009.1 1009.1 0.0
17/02:00pm 19.8 13.7 11.8 60 4.4 WNW 35 52 19 28 1009.4 1009.4 0.0
17/01:30pm 20.3 13.5 12.0 59 4.6 WNW 39 56 21 30 1009.5 1009.5 0.0
17/01:00pm 19.9 12.7 10.6 55 5.1 WNW 39 52 21 28 1009.6 1009.6 0.0
17/12:30pm 19.4 12.4 11.4 60 4.4 WNW 39 52 21 28 1009.8 1009.8 0.0
17/12:16pm 19.6 12.6 11.4 59 4.5 WNW 39 59 21 32 1009.8 1009.8 0.0
17/12:00pm 19.9 13.9 12.2 61 4.3 WNW 35 50 19 27 1010.0 1010.0 0.0
17/11:36am 18.9 13.1 12.6 67 3.5 WNW 35 54 19 29 1010.0 1010.0 0.0
17/11:30am 19.4 12.7 12.4 64 3.9 WNW 39 54 21 29 1010.1 1010.1 0.0
17/11:12am 19.3 12.9 12.1 63 4.0 WNW 37 56 20 30 1010.0 1010.0 0.0
17/11:00am 18.9 12.0 11.7 63 4.0 WNW 39 52 21 28 1010.0 1010.0 0.0
17/10:30am 19.0 12.0 11.1 60 4.3 WNW 39 54 21 29 1010.1 1010.1 0.0
17/10:00am 18.7 12.5 11.5 63 3.9 WNW 35 50 19 27 1010.5 1010.5 0.0
17/09:30am 18.1 11.2 10.2 60 4.2 WNW 37 48 20 26 1010.5 1010.5 0.0
17/09:00am 17.5 11.6 10.4 63 3.8 WNW 32 44 17 24 1010.6 1010.6 0.0
17/08:30am 17.8 10.4 9.9 60 4.2 WNW 39 56 21 30 1010.4 1010.4 0.0
17/08:00am 17.2 10.4 10.8 66 3.4 WNW 37 50 20 27 1010.2 1010.2 0.0
17/07:36am 17.2 11.1 10.6 65 3.5 WNW 33 52 18 28 1010.3 1010.3 0.0
17/07:30am 16.9 10.2 9.8 63 3.7 WNW 35 52 19 28 1010.2 1010.2 0.0
17/07:28am 16.8 10.6 10.0 64 3.6 WNW 33 52 18 28 1010.1 1010.1 0.0
17/07:00am 16.5 10.8 11.2 71 2.9 W 32 44 17 24 1009.9 1009.9 0.0
17/06:30am 16.8 10.6 11.5 71 2.9 WNW 35 46 19 25 1009.7 1009.7 0.0
17/06:00am 16.5 10.1 9.4 63 3.7 WNW 33 48 18 26 1009.4 1009.4 0.0
17/05:30am 16.4 10.1 9.1 62 3.8 WNW 32 44 17 24 1009.2 1009.2 0.0
17/05:00am 16.0 10.4 8.7 62 3.7 W 28 46 15 25 1009.4 1009.4 0.0
17/04:30am 16.3 9.4 9.0 62 3.8 W 35 48 19 26 1009.2 1009.2 0.0
17/04:00am 16.1 9.6 8.8 62 3.7 W 33 46 18 25 1009.4 1009.4 0.0
17/03:36am 16.3 10.5 9.5 64 3.5 W 30 50 16 27 1009.7 1009.7 0.0
17/03:30am 16.2 8.9 8.9 62 3.7 W 37 50 20 27 1009.5 1009.5 0.0
17/03:14am 16.3 10.6 9.9 66 3.4 W 30 48 16 26 1009.6 1009.6 0.0
17/03:00am 16.1 9.3 9.1 63 3.6 W 35 50 19 27 1009.7 1009.7 0.0
17/02:30am 16.1 10.6 10.4 69 3.0 W 30 46 16 25 1009.8 1009.8 0.0
17/02:00am 16.0 8.9 9.7 66 3.3 W 37 48 20 26 1009.9 1009.9 0.0
17/01:30am 16.0 9.0 9.9 67 3.2 W 37 50 20 27 1010.2 1010.2 0.0
17/01:00am 16.2 10.7 10.5 69 3.0 W 30 41 16 22 1010.5 1010.5 0.0
17/12:30am 16.5 10.1 10.6 68 3.1 W 35 50 19 27 1010.9 1010.8 0.0
17/12:00am 16.7 10.6 10.3 66 3.4 W 33 46 18 25 1010.4 1010.4 0.0
 
Date/Time
EDT
Temp
°C
App
Temp
°C
Dew
Point
°C
Rel
Hum
%
Delta-T
°C
Wind Press
QNH
hPa
Press
MSL
hPa
Rain since
9am
mm
Dir  Spd
km/h
Gust
km/h
Spd
kts
Gust
kts
16/11:30pm 16.6 11.0 10.0 65 3.5 W 30 50 16 27 1010.7 1010.7 0.0
16/11:14pm 16.7 10.4 9.1 61 3.9 W 32 52 17 28 1010.5 1010.5 0.0
16/11:00pm 16.8 9.4 8.5 58 4.2 W 37 46 20 25 1010.7 1010.7 0.0
16/10:30pm 17.3 12.0 9.7 61 4.0 W 28 43 15 23 1010.6 1010.6 0.0
16/10:00pm 16.8 12.4 8.8 59 4.1 WSW 22 33 12 18 1010.4 1010.4 0.0
16/09:30pm 16.7 12.5 8.1 57 4.4 WSW 20 33 11 18 1010.3 1010.3 0.0
16/09:00pm 17.2 10.4 9.4 60 4.1 W 35 52 19 28 1009.6 1009.6 0.0
16/08:30pm 17.1 10.6 9.0 59 4.2 W 33 48 18 26 1009.7 1009.7 0.0
16/08:00pm 17.2 10.5 9.6 61 4.0 W 35 54 19 29 1009.3 1009.3 0.0
16/07:50pm 17.3 10.6 9.5 60 4.1 W 35 54 19 29 1009.2 1009.2 0.0
16/07:30pm 17.4 11.0 9.3 59 4.2 W 33 46 18 25 1009.1 1009.1 0.0
16/07:00pm 17.8 11.4 9.4 58 4.4 WNW 33 50 18 27 1008.6 1008.6 0.0
16/06:39pm 18.1 12.0 9.7 58 4.4 W 32 52 17 28 1008.6 1008.6 0.0
16/06:30pm 18.2 11.3 9.0 55 4.8 W 35 52 19 28 1008.4 1008.4 0.0
16/06:07pm 18.0 11.4 10.1 60 4.2 W 35 57 19 31 1008.1 1008.1 0.0
16/06:00pm 18.1 11.4 9.7 58 4.4 W 35 52 19 28 1008.1 1008.1 0.0
16/05:32pm 18.5 12.0 10.3 59 4.4 W 35 54 19 29 1008.1 1008.1 0.0
16/05:30pm 18.7 11.7 10.0 57 4.6 W 37 54 20 29 1008.1 1008.1 0.0
16/05:19pm 18.7 12.3 10.8 60 4.3 W 35 54 19 29 1008.1 1008.1 0.0
16/05:00pm 18.5 11.6 10.3 59 4.4 W 37 54 20 29 1008.3 1008.3 0.0
16/04:42pm 18.8 11.6 9.0 53 5.1 W 37 57 20 31 1008.1 1008.1 0.0
16/04:30pm 19.0 12.5 10.3 57 4.7 W 35 50 19 27 1008.0 1008.0 0.0
16/04:00pm 18.6 12.5 10.4 59 4.4 W 33 54 18 29 1007.9 1007.9 0.0
16/03:30pm 19.4 12.5 10.4 56 4.9 W 37 56 20 30 1007.9 1007.9 0.0
16/03:04pm 18.9 11.9 9.9 56 4.8 W 37 57 20 31 1007.7 1007.7 0.0
16/03:00pm 19.3 12.3 10.0 55 5.0 W 37 54 20 29 1007.7 1007.7 0.0
16/02:30pm 19.5 12.1 9.7 53 5.2 W 39 61 21 33 1007.7 1007.7 0.0
16/02:00pm 19.2 11.6 10.5 57 4.7 W 41 59 22 32 1007.7 1007.7 0.0
16/01:30pm 18.9 10.8 9.9 56 4.8 W 43 63 23 34 1007.5 1007.5 0.0
16/01:03pm 18.1 9.0 10.0 59 4.3 W 48 67 26 36 1007.5 1007.5 0.0
16/01:00pm 17.7 8.1 9.3 58 4.4 W 50 67 27 36 1007.5 1007.5 0.0
16/12:30pm 18.0 8.3 9.1 56 4.6 W 50 70 27 38 1007.5 1007.5 0.0
16/12:00pm 17.9 9.2 10.0 60 4.2 W 46 69 25 37 1007.5 1007.5 0.0
16/11:33am 17.7 8.7 10.3 62 3.9 W 48 69 26 37 1007.3 1007.3 0.0
16/11:30am 17.1 7.5 9.5 61 4.0 W 50 69 27 37 1007.4 1007.4 0.0
16/11:00am 16.7 7.0 9.1 61 3.9 W 50 70 27 38 1007.3 1007.3 0.0
16/10:30am 17.5 8.8 10.1 62 3.9 W 46 65 25 35 1007.3 1007.3 0.0
16/10:00am 17.0 7.2 8.7 58 4.3 W 50 72 27 39 1007.0 1007.0 0.0
16/09:35am 16.8 7.6 8.0 56 4.5 W 46 65 25 35 1006.9 1006.9 0.0
16/09:30am 16.5 6.6 8.2 58 4.2 W 50 65 27 35 1006.9 1006.9 0.0
16/09:01am 16.3 7.7 8.8 61 3.8 W 44 67 24 36 1007.1 1007.1 0.0
16/09:00am 16.3 7.7 9.0 62 3.8 W 44 61 24 33 1007.1 1007.1 1.6
16/08:30am 15.9 6.7 8.2 60 3.9 W 46 70 25 38 1006.6 1006.6 1.6
16/08:01am 15.9 7.0 9.3 65 3.4 W 46 67 25 36 1006.8 1006.8 1.6
16/08:00am 15.9 6.5 8.6 62 3.7 W 48 67 26 36 1006.6 1006.6 1.6
16/07:30am 15.7 6.4 7.7 59 4.0 W 46 67 25 36 1006.4 1006.4 1.6
16/07:13am 15.5 7.4 8.7 64 3.5 W 41 65 22 35 1006.2 1006.2 1.6
16/07:00am 15.3 7.1 8.3 63 3.5 W 41 57 22 31 1006.3 1006.3 1.6
16/06:30am 15.1 8.1 8.3 64 3.4 W 35 54 19 29 1006.1 1006.1 1.6
16/06:00am 14.9 6.1 7.9 63 3.5 W 44 65 24 35 1005.6 1005.6 1.6
16/05:34am 14.9 7.2 8.6 66 3.2 WSW 39 59 21 32 1005.4 1005.4 1.6
16/05:30am 14.8 6.7 8.5 66 3.2 WSW 41 59 22 32 1005.4 1005.4 1.6
16/05:18am 15.0 7.4 8.9 67 3.1 W 39 59 21 32 1005.2 1005.2 1.6
16/05:00am 15.1 6.1 9.0 67 3.1 W 46 63 25 34 1004.9 1004.9 1.6
16/04:34am 15.2 5.8 8.9 66 3.2 W 48 69 26 37 1004.6 1004.6 1.6
16/04:30am 15.2 6.3 9.1 67 3.1 W 46 63 25 34 1004.7 1004.7 1.6
16/04:00am 15.4 7.5 9.3 67 3.2 W 41 59 22 32 1004.9 1004.9 1.6
16/03:30am 15.3 6.2 8.5 64 3.4 W 46 65 25 35 1004.6 1004.6 1.6
16/03:20am 15.3 6.2 8.5 64 3.4 W 46 65 25 35 1004.6 1004.6 1.6
16/03:00am 15.3 6.6 8.5 64 3.5 W 44 61 24 33 1004.6 1004.6 1.6
16/02:30am 15.5 6.8 8.5 63 3.5 W 44 67 24 36 1004.6 1004.6 1.6
16/02:00am 15.7 6.4 9.1 65 3.4 W 48 70 26 38 1004.7 1004.7 1.6
16/01:31am 15.6 5.8 8.6 63 3.6 W 50 69 27 37 1004.4 1004.4 1.6
16/01:30am 15.7 6.0 8.9 64 3.5 W 50 69 27 37 1004.5 1004.5 1.6
16/01:00am 16.0 7.7 9.9 67 3.2 W 44 67 24 36 1004.3 1004.3 1.6
16/12:30am 16.1 6.5 9.5 65 3.4 W 50 78 27 42 1004.1 1004.1 1.6
16/12:00am 16.3 7.0 9.0 62 3.8 W 48 70 26 38 1004.0 1004.0 1.6
 
Date/Time
EDT
Temp
°C
App
Temp
°C
Dew
Point
°C
Rel
Hum
%
Delta-T
°C
Wind Press
QNH
hPa
Press
MSL
hPa
Rain since
9am
mm
Dir  Spd
km/h
Gust
km/h
Spd
kts
Gust
kts
15/11:30pm 16.7 8.3 11.2 70 3.0 W 46 65 25 35 1004.1 1004.1 1.6
15/11:00pm 16.9 6.1 10.1 64 3.6 W 57 78 31 42 1004.0 1004.0 1.6
15/10:30pm 17.0 6.9 10.4 65 3.5 W 54 76 29 41 1004.0 1004.0 1.6
15/10:00pm 17.2 7.4 11.5 69 3.1 W 54 80 29 43 1004.1 1004.1 1.6
15/09:30pm 17.0 8.2 12.1 73 2.7 W 50 72 27 39 1004.1 1004.1 1.6
15/09:00pm 16.7 8.0 12.5 76 2.3 W 50 72 27 39 1003.9 1003.9 1.6
15/08:32pm 16.7 9.1 12.5 76 2.3 W 44 65 24 35 1003.5 1003.5 1.6
15/08:30pm 16.8 9.3 12.7 77 2.3 WNW 44 59 24 32 1003.6 1003.6 1.6
15/08:00pm 16.7 9.7 13.6 82 1.8 W 43 61 23 33 1003.4 1003.4 1.6
15/07:30pm 15.6 8.2 14.3 92 0.7 W 46 76 25 41 1003.3 1003.3 1.6
15/07:00pm 17.8 8.5 13.1 74 2.7 WNW 54 78 29 42 1002.9 1002.9 0.8
15/06:30pm 18.0 9.7 13.9 77 2.3 WNW 50 74 27 40 1002.9 1002.9 0.8
15/06:00pm 18.6 10.1 14.3 76 2.5 WNW 52 74 28 40 1003.2 1003.2 0.8
15/05:30pm 18.5 9.6 13.1 71 3.0 WNW 52 74 28 40 1003.4 1003.4 0.8
15/05:00pm 18.9 9.2 12.9 68 3.4 WNW 56 76 30 41 1003.5 1003.5 0.8
15/04:34pm 18.7 10.0 13.6 72 2.9 WNW 52 72 28 39 1003.6 1003.6 0.8
15/04:30pm 18.4 9.6 13.3 72 2.9 WNW 52 70 28 38 1003.8 1003.8 0.8
15/04:00pm 18.6 10.0 14.1 75 2.6 WNW 52 70 28 38 1004.0 1004.0 0.8
15/03:30pm 18.8 10.2 14.1 74 2.7 WNW 52 70 28 38 1004.1 1004.1 0.8
15/03:00pm 18.0 8.7 14.3 79 2.1 WNW 56 76 30 41 1004.3 1004.3 0.8
15/02:30pm 16.2 9.5 14.7 91 0.9 W 43 65 23 35 1004.5 1004.5 0.8
15/02:20pm 16.6 8.7 13.9 84 1.5 W 48 72 26 39 1004.6 1004.6 0.2
15/02:19pm 16.9 9.1 14.2 84 1.5 W 48 70 26 38 1004.8 1004.8 0.2
15/02:00pm 18.9 9.7 14.4 75 2.6 WNW 56 74 30 40 1004.5 1004.5 0.2
15/01:34pm 16.9 9.5 14.2 84 1.5 WNW 46 67 25 36 1004.7 1004.7 0.2
15/01:30pm 17.8 9.8 14.7 82 1.8 WNW 50 67 27 36 1004.6 1004.6 0.2
15/01:00pm 16.4 8.8 14.6 89 1.0 WNW 48 70 26 38 1004.9 1004.9 0.2
15/12:33pm 18.7 9.4 13.1 70 3.2 WNW 54 78 29 42 1004.9 1004.9 0.0
15/12:30pm 18.6 9.7 13.0 70 3.2 WNW 52 70 28 38 1005.0 1005.0 0.0

Other Formats:

Comma delimited format used in spreadsheet applications
http://www.bom.gov.au/fwo/IDT60801/IDT60801.95985.axf

JavaScript Object Notation format (JSON) in row-major order
http://www.bom.gov.au/fwo/IDT60801/IDT60801.95985.json